Time;durP1;ratioP1;P1;durP2;ratioP2;P2;SDS_P1;SDS_P2;PMS_P1;PMS_P2;Temp;Humidity;BMP_temperature;BMP_pressure;BME280_temperature;BME280_humidity;BME280_pressure;Samples;Min_cycle;Max_cycle;Signal;HPM_P1;HPM_P2
2022/06/21 00:02:03;;;;;;;2.67;2.47;;;12.50;99.90;;;;;;5052639;28;20209;-76
2022/06/21 00:04:29;;;;;;;3.83;2.80;;;12.30;99.90;;;;;;5019966;28;20213;-76
2022/06/21 00:06:57;;;;;;;2.87;2.67;;;12.40;99.90;;;;;;5019273;28;20213;-75
2022/06/21 00:09:23;;;;;;;3.50;2.60;;;12.30;99.90;;;;;;5036017;28;20184;-76
2022/06/21 00:11:49;;;;;;;4.47;2.90;;;12.40;99.90;;;;;;5019265;28;20306;-77
2022/06/21 00:14:15;;;;;;;3.43;2.97;;;12.50;99.90;;;;;;5019805;28;20204;-76
2022/06/21 00:16:40;;;;;;;3.13;2.90;;;12.40;99.90;;;;;;5052326;28;20193;-76
2022/06/21 00:19:10;;;;;;;3.17;2.90;;;12.50;99.90;;;;;;5035821;28;20169;-77
2022/06/21 00:21:39;;;;;;;4.07;2.77;;;12.60;99.90;;;;;;5052371;28;20174;-75
2022/06/21 00:24:05;;;;;;;3.07;2.80;;;12.50;99.90;;;;;;5019360;28;20227;-76
2022/06/21 00:26:31;;;;;;;2.70;2.50;;;12.20;99.90;;;;;;5035932;28;20220;-76
2022/06/21 00:28:57;;;;;;;3.43;2.63;;;12.20;99.90;;;;;;5052375;28;20178;-76
2022/06/21 00:31:30;;;;;;;3.00;2.80;;;12.20;99.90;;;;;;5035508;28;20228;-76
2022/06/21 00:33:57;;;;;;;3.07;2.77;;;12.10;99.90;;;;;;5053066;28;20176;-76
2022/06/21 00:36:33;;;;;;;3.53;3.23;;;12.10;99.90;;;;;;5051942;28;20224;-76
2022/06/21 00:39:00;;;;;;;3.73;3.33;;;12.10;99.90;;;;;;5036555;28;20180;-76
2022/06/21 00:41:52;;;;;;;3.80;3.23;;;12.00;99.90;;;;;;5035359;28;20181;-75
2022/06/21 00:44:20;;;;;;;3.43;3.13;;;11.90;99.90;;;;;;5051906;28;20181;-76
2022/06/21 00:46:51;;;;;;;4.27;3.17;;;11.80;99.90;;;;;;5052881;28;20218;-77
2022/06/21 00:49:26;;;;;;;3.40;3.20;;;11.70;99.90;;;;;;5035514;28;20188;-77
2022/06/21 00:52:19;;;;;;;3.10;2.80;;;11.80;99.90;;;;;;5035206;28;20746;-77
2022/06/21 00:55:10;;;;;;;3.97;3.30;;;11.80;99.90;;;;;;5051636;28;20173;-78
2022/06/21 00:57:43;;;;;;;3.47;3.17;;;11.70;99.90;;;;;;5051602;28;20193;-77
2022/06/21 01:00:27;;;;;;;3.10;2.80;;;11.50;99.90;;;;;;5051530;28;20260;-77
2022/06/21 01:02:54;;;;;;;3.27;2.97;;;11.60;99.90;;;;;;5051253;28;20174;-76
2022/06/21 01:05:22;;;;;;;3.30;2.87;;;11.60;99.90;;;;;;5051481;28;20588;-77
2022/06/21 01:07:48;;;;;;;2.50;2.30;;;11.80;99.90;;;;;;5051014;28;20205;-76
2022/06/21 01:10:16;;;;;;;3.10;2.80;;;11.50;99.90;;;;;;5034895;28;20174;-77
2022/06/21 01:12:49;;;;;;;2.70;2.50;;;11.50;99.90;;;;;;5051151;28;20228;-77
2022/06/21 01:15:20;;;;;;;3.23;2.80;;;11.50;99.90;;;;;;5051341;28;20196;-77
2022/06/21 01:17:48;;;;;;;3.30;3.00;;;11.60;99.90;;;;;;5050770;28;20200;-77
2022/06/21 01:20:24;;;;;;;3.47;3.17;;;11.50;99.90;;;;;;5018066;28;20178;-77
2022/06/21 01:23:15;;;;;;;2.97;2.77;;;11.40;99.90;;;;;;5051220;28;20205;-77
2022/06/21 01:25:55;;;;;;;4.50;2.80;;;11.50;99.90;;;;;;5051190;28;20219;-77
2022/06/21 01:28:21;;;;;;;3.90;3.10;;;11.60;99.90;;;;;;5052391;28;20189;-77
2022/06/21 01:30:51;;;;;;;3.33;3.03;;;11.60;99.90;;;;;;5050855;28;20177;-77
2022/06/21 01:33:26;;;;;;;2.60;2.33;;;11.70;99.90;;;;;;5034560;28;20201;-77
2022/06/21 01:35:55;;;;;;;3.20;2.90;;;11.60;99.90;;;;;;5051071;28;20267;-76
2022/06/21 01:38:26;;;;;;;3.50;3.10;;;11.40;99.90;;;;;;5052095;28;20191;-77
2022/06/21 01:40:56;;;;;;;4.23;3.00;;;11.40;99.90;;;;;;5034487;28;20169;-77
2022/06/21 01:43:28;;;;;;;3.40;3.10;;;11.30;99.90;;;;;;5050705;28;20364;-77
2022/06/21 01:46:05;;;;;;;3.23;2.93;;;11.50;99.90;;;;;;5034421;28;20176;-78
2022/06/21 01:48:42;;;;;;;3.07;2.87;;;11.40;99.90;;;;;;5035350;28;20561;-77
2022/06/21 01:51:12;;;;;;;3.83;3.30;;;11.20;99.90;;;;;;5052105;28;20176;-77
2022/06/21 01:53:38;;;;;;;3.17;2.97;;;10.60;99.90;;;;;;5050432;28;20219;-77
2022/06/21 01:56:09;;;;;;;3.50;3.20;;;10.60;99.90;;;;;;5017852;28;20175;-76
2022/06/21 01:58:41;;;;;;;4.83;3.40;;;10.40;99.90;;;;;;5034393;28;20177;-77
2022/06/21 02:01:15;;;;;;;3.50;3.20;;;10.40;99.90;;;;;;5050736;28;20231;-77
2022/06/21 02:03:42;;;;;;;3.63;2.90;;;10.60;99.90;;;;;;5051716;28;20225;-77
2022/06/21 02:06:12;;;;;;;4.73;3.10;;;10.80;99.90;;;;;;5050523;28;20208;-77
2022/06/21 02:08:47;;;;;;;3.20;2.93;;;10.60;99.90;;;;;;5021173;22;20604;-76
2022/06/21 02:11:50;;;;;;;3.40;3.10;;;10.80;99.90;;;;;;5011063;28;20644;-76
2022/06/21 02:14:28;;;;;;;3.60;3.30;;;10.70;99.90;;;;;;5011537;28;20175;-76
2022/06/21 02:17:24;;;;;;;4.20;3.80;;;10.70;99.90;;;;;;5010927;28;20570;-76
2022/06/21 02:20:04;;;;;;;3.77;3.33;;;10.80;99.90;;;;;;5006502;28;20187;-76
2022/06/21 02:22:31;;;;;;;3.50;3.20;;;10.80;99.90;;;;;;5010960;28;20599;-76
2022/06/21 02:24:58;;;;;;;4.57;3.20;;;10.70;99.90;;;;;;5010737;28;20205;-76
2022/06/21 02:27:29;;;;;;;6.07;3.40;;;10.80;99.90;;;;;;5010979;28;20733;-76
2022/06/21 02:29:58;;;;;;;4.97;3.70;;;10.70;99.90;;;;;;5012226;28;20178;-76
2022/06/21 02:32:39;;;;;;;3.70;3.40;;;10.60;99.90;;;;;;5014408;28;20290;-76
2022/06/21 02:35:07;;;;;;;2.97;2.70;;;10.60;99.90;;;;;;5014506;28;20674;-76
2022/06/21 02:37:34;;;;;;;4.70;3.43;;;10.40;99.90;;;;;;4998155;28;20780;-76
2022/06/21 02:40:04;;;;;;;3.50;3.20;;;10.40;99.90;;;;;;5014447;28;20542;-76
2022/06/21 02:42:32;;;;;;;3.37;3.07;;;10.40;99.90;;;;;;5014148;28;20171;-76
2022/06/21 02:45:15;;;;;;;4.00;3.70;;;10.50;99.90;;;;;;5015517;28;20167;-76
2022/06/21 02:47:44;;;;;;;5.10;3.70;;;10.50;99.90;;;;;;5015421;28;20712;-76
2022/06/21 02:50:32;;;;;;;4.57;4.03;;;10.40;99.90;;;;;;5014175;28;20175;-76
2022/06/21 02:53:00;;;;;;;9.60;4.00;;;10.50;99.90;;;;;;5014099;28;20245;-76
2022/06/21 02:56:06;;;;;;;5.50;4.10;;;10.00;99.90;;;;;;5015386;28;20194;-76
2022/06/21 02:58:38;;;;;;;4.63;3.80;;;9.80;99.90;;;;;;5012886;28;20202;-76
2022/06/21 03:01:11;;;;;;;4.20;3.80;;;9.80;99.90;;;;;;5010669;28;20277;-76
2022/06/21 03:03:37;;;;;;;3.83;3.27;;;9.80;99.90;;;;;;5013941;28;20171;-76
2022/06/21 03:06:07;;;;;;;4.43;4.03;;;9.70;99.90;;;;;;4997752;28;20233;-76
2022/06/21 03:08:35;;;;;;;5.73;4.33;;;9.60;99.90;;;;;;5013970;28;20207;-76
2022/06/21 03:11:01;;;;;;;4.00;3.70;;;9.40;99.90;;;;;;5013959;28;20229;-76
2022/06/21 03:13:34;;;;;;;4.93;4.43;;;9.30;99.90;;;;;;5013687;28;20179;-76
2022/06/21 03:16:05;;;;;;;3.83;3.53;;;9.60;99.90;;;;;;4997492;28;20178;-76
2022/06/21 03:18:36;;;;;;;4.00;3.60;;;9.60;99.90;;;;;;4997777;28;20195;-76
2022/06/21 03:21:04;;;;;;;7.97;4.60;;;9.50;99.90;;;;;;5013569;28;20189;-76
2022/06/21 03:23:30;;;;;;;7.30;4.60;;;9.30;99.90;;;;;;5013488;28;20174;-76
2022/06/21 03:26:02;;;;;;;4.87;4.40;;;9.40;99.90;;;;;;5013666;28;20321;-76
2022/06/21 03:28:30;;;;;;;4.37;4.07;;;9.60;99.90;;;;;;4997087;28;20286;-76
2022/06/21 03:31:02;;;;;;;4.60;4.13;;;9.60;99.90;;;;;;5013446;28;20186;-76
2022/06/21 03:33:30;;;;;;;6.20;4.37;;;9.60;99.90;;;;;;5013230;28;20562;-76
2022/06/21 03:35:56;;;;;;;5.13;4.47;;;9.70;99.90;;;;;;5013395;28;20207;-76
2022/06/21 03:38:23;;;;;;;5.13;4.63;;;9.80;99.90;;;;;;4997242;28;20199;-76
2022/06/21 03:43:45;;;;;;;18.40;5.50;;;9.90;99.90;;;;;;4999745;28;20577;-76
2022/06/21 03:46:21;;;;;;;11.40;4.50;;;9.90;99.90;;;;;;5013307;28;20199;-76
2022/06/21 03:49:29;;;;;;;5.13;3.87;;;9.90;99.90;;;;;;5012853;28;20577;-76
2022/06/21 03:51:55;;;;;;;3.93;3.63;;;9.70;99.90;;;;;;5013327;28;20194;-76
2022/06/21 03:54:33;;;;;;;4.30;4.00;;;9.60;99.90;;;;;;4997606;28;20534;-76
2022/06/21 03:57:02;;;;;;;4.23;3.83;;;9.80;99.90;;;;;;5013819;28;20241;-76
2022/06/21 04:00:16;;;;;;;3.83;3.53;;;9.90;99.90;;;;;;5013092;28;20542;-76
2022/06/21 04:02:45;;;;;;;3.83;3.53;;;9.90;99.90;;;;;;5013187;28;20250;-76
2022/06/21 04:05:17;;;;;;;3.50;3.10;;;10.00;99.90;;;;;;5014611;28;20175;-76
2022/06/21 04:07:58;;;;;;;3.87;3.30;;;10.00;99.90;;;;;;5014416;28;20614;-76
2022/06/21 04:11:06;;;;;;;4.00;3.70;;;9.90;99.90;;;;;;5013520;28;20205;-76
2022/06/21 04:13:52;;;;;;;3.80;3.50;;;9.80;99.90;;;;;;5008538;28;20190;-76
2022/06/21 04:16:48;;;;;;;3.73;3.43;;;9.90;99.90;;;;;;5013447;28;20226;-76
2022/06/21 04:19:23;;;;;;;4.47;3.90;;;9.90;99.90;;;;;;5005224;28;20610;-76
2022/06/21 04:22:21;;;;;;;4.07;3.70;;;9.90;99.90;;;;;;5012863;28;20188;-76
2022/06/21 04:24:57;;;;;;;3.10;2.90;;;9.90;99.90;;;;;;5013432;28;20256;-76
2022/06/21 04:27:30;;;;;;;3.50;3.20;;;9.90;99.90;;;;;;5012818;28;20285;-76
2022/06/21 04:30:03;;;;;;;3.50;3.20;;;9.80;99.90;;;;;;5013011;28;20250;-76
2022/06/21 04:32:39;;;;;;;4.30;3.93;;;9.70;99.90;;;;;;5011889;28;20817;-76
2022/06/21 04:35:23;;;;;;;4.43;4.03;;;9.90;99.90;;;;;;5013140;28;20535;-76
2022/06/21 04:38:04;;;;;;;4.90;4.43;;;9.60;99.90;;;;;;5012673;28;20201;-76
2022/06/21 04:40:38;;;;;;;5.80;4.77;;;9.50;99.90;;;;;;5012700;28;20174;-76
2022/06/21 04:43:30;;;;;;;5.23;4.80;;;9.40;99.90;;;;;;5028969;28;20182;-76
2022/06/21 04:46:05;;;;;;;4.90;4.40;;;9.60;99.90;;;;;;4998736;28;20281;-76
2022/06/21 04:48:44;;;;;;;7.07;4.60;;;9.60;99.90;;;;;;5012981;28;20568;-76
2022/06/21 04:51:23;;;;;;;4.77;4.37;;;9.70;99.90;;;;;;5013979;28;20186;-76
2022/06/21 04:54:12;;;;;;;6.33;4.73;;;9.80;99.90;;;;;;5012584;28;20223;-76
2022/06/21 04:56:44;;;;;;;5.47;4.50;;;9.90;99.90;;;;;;5013397;28;20527;-76
2022/06/21 04:59:30;;;;;;;4.53;4.13;;;10.10;99.90;;;;;;5028619;28;20175;-76
2022/06/21 05:01:57;;;;;;;6.23;4.50;;;10.10;99.90;;;;;;4996131;28;20180;-75
2022/06/21 05:04:33;;;;;;;4.40;4.10;;;10.20;99.90;;;;;;4996387;28;20197;-76
2022/06/21 05:07:03;;;;;;;4.43;4.03;;;10.20;99.90;;;;;;5012344;28;20269;-76
2022/06/21 05:09:33;;;;;;;4.13;3.83;;;10.30;99.90;;;;;;4996188;28;20278;-76
2022/06/21 05:12:23;;;;;;;4.30;4.00;;;10.30;99.90;;;;;;5012305;28;20268;-76
2022/06/21 05:14:54;;;;;;;4.07;3.60;;;10.50;99.90;;;;;;5006486;28;20270;-76
2022/06/21 05:17:21;;;;;;;4.83;4.43;;;10.60;99.90;;;;;;5012767;28;20671;-76
2022/06/21 05:19:58;;;;;;;5.57;4.20;;;10.60;99.90;;;;;;5012244;28;20187;-76
2022/06/21 05:22:35;;;;;;;4.47;4.07;;;10.70;99.90;;;;;;5011890;28;20265;-76
2022/06/21 05:25:04;;;;;;;6.77;4.57;;;10.70;99.90;;;;;;5028440;28;20183;-77
2022/06/21 05:27:45;;;;;;;3.87;3.57;;;11.30;99.90;;;;;;5011704;28;20202;-76
2022/06/21 05:30:34;;;;;;;3.90;3.60;;;11.90;99.90;;;;;;4995670;28;20186;-76
2022/06/21 05:33:06;;;;;;;4.20;3.80;;;12.50;99.90;;;;;;5006193;28;20218;-76
2022/06/21 05:35:36;;;;;;;5.93;4.70;;;12.90;99.90;;;;;;5028383;28;20233;-76
2022/06/21 05:38:27;;;;;;;5.27;4.57;;;13.20;99.90;;;;;;5012717;28;20226;-76
2022/06/21 05:41:02;;;;;;;6.23;5.00;;;13.40;99.90;;;;;;5012209;28;20229;-76
2022/06/21 05:43:37;;;;;;;5.57;5.07;;;13.20;99.90;;;;;;4995143;28;20189;-76
2022/06/21 05:46:11;;;;;;;4.90;4.40;;;13.30;99.90;;;;;;5013094;28;20173;-77
2022/06/21 05:48:38;;;;;;;5.67;3.87;;;13.50;99.90;;;;;;5028419;28;20547;-77
2022/06/21 05:51:11;;;;;;;4.53;4.13;;;13.80;99.90;;;;;;5011683;28;20237;-76
2022/06/21 05:53:43;;;;;;;6.67;5.10;;;14.00;99.90;;;;;;5028016;28;20190;-77
2022/06/21 05:56:14;;;;;;;5.30;4.80;;;14.10;99.90;;;;;;5028452;28;20673;-76
2022/06/21 05:58:53;;;;;;;4.63;4.23;;;14.00;99.90;;;;;;5011591;28;20191;-76
2022/06/21 06:01:29;;;;;;;7.17;4.93;;;13.60;99.90;;;;;;5011859;28;20174;-76
2022/06/21 06:04:08;;;;;;;5.83;5.30;;;13.30;99.90;;;;;;5028112;28;20600;-76
2022/06/21 06:06:36;;;;;;;7.57;5.33;;;13.10;99.90;;;;;;5015516;28;20178;-76
2022/06/21 06:09:06;;;;;;;6.03;5.53;;;12.90;99.90;;;;;;5015730;28;20175;-76
2022/06/21 06:12:00;;;;;;;6.30;5.80;;;12.90;99.90;;;;;;5031844;28;20676;-76
2022/06/21 06:15:13;;;;;;;6.33;5.73;;;12.90;99.90;;;;;;5015774;28;20173;-76
2022/06/21 06:18:03;;;;;;;6.70;6.10;;;12.90;99.90;;;;;;4993306;28;20213;-76
2022/06/21 06:20:41;;;;;;;6.70;5.70;;;12.90;99.90;;;;;;5031869;28;20224;-76
2022/06/21 06:23:29;;;;;;;6.67;6.07;;;13.00;99.90;;;;;;5015231;28;20258;-76
2022/06/21 06:26:05;;;;;;;6.23;5.63;;;12.80;99.90;;;;;;5015639;28;20185;-76
2022/06/21 06:28:44;;;;;;;6.40;5.90;;;12.90;99.90;;;;;;5015443;28;20256;-76
2022/06/21 06:31:23;;;;;;;6.70;6.10;;;13.00;99.90;;;;;;5031607;28;20254;-75
2022/06/21 06:34:11;;;;;;;6.53;5.93;;;13.10;99.90;;;;;;5015295;28;20640;-76
2022/06/21 06:36:42;;;;;;;6.13;5.63;;;13.00;99.90;;;;;;4999052;28;20178;-76
2022/06/21 06:39:30;;;;;;;6.77;6.17;;;13.10;99.90;;;;;;5015447;28;20681;-76
2022/06/21 06:42:27;;;;;;;6.73;6.13;;;13.20;99.90;;;;;;5014796;28;20182;-76
2022/06/21 06:45:00;;;;;;;6.50;5.90;;;13.30;99.90;;;;;;5014105;28;20186;-76
2022/06/21 06:47:30;;;;;;;6.83;6.23;;;13.40;99.90;;;;;;5015061;28;20211;-75
2022/06/21 06:50:03;;;;;;;7.40;6.70;;;13.40;99.90;;;;;;5015101;28;20175;-75
2022/06/21 06:52:37;;;;;;;7.17;6.47;;;13.50;99.90;;;;;;5031167;28;20226;-76
2022/06/21 06:55:34;;;;;;;7.47;6.70;;;13.70;99.90;;;;;;5014982;28;20167;-76
2022/06/21 06:58:31;;;;;;;7.07;6.47;;;13.90;99.90;;;;;;4997945;28;20199;-76
2022/06/21 07:01:17;;;;;;;7.50;6.20;;;14.00;99.90;;;;;;5031340;28;20224;-76
2022/06/21 07:03:53;;;;;;;7.90;6.20;;;14.10;99.90;;;;;;4998331;28;20175;-76
2022/06/21 07:06:33;;;;;;;7.50;6.13;;;14.30;99.90;;;;;;5014830;28;20343;-76
2022/06/21 07:09:17;;;;;;;6.80;6.10;;;14.40;99.90;;;;;;5031132;28;20281;-76
2022/06/21 07:11:43;;;;;;;9.20;6.57;;;14.60;99.90;;;;;;5030749;28;20222;-76
2022/06/21 07:14:15;;;;;;;8.10;6.67;;;14.70;99.90;;;;;;5031041;28;20210;-76
2022/06/21 07:16:42;;;;;;;7.17;5.97;;;14.90;99.90;;;;;;5029758;28;20201;-76
2022/06/21 07:19:10;;;;;;;7.33;6.43;;;15.00;99.90;;;;;;5014119;28;20181;-76
2022/06/21 07:21:39;;;;;;;6.57;5.33;;;15.20;99.90;;;;;;4998034;28;20233;-76
2022/06/21 07:24:13;;;;;;;6.13;5.33;;;15.30;99.90;;;;;;5030531;28;20225;-76
2022/06/21 07:26:47;;;;;;;5.50;5.00;;;15.40;99.90;;;;;;5030857;28;20539;-76
2022/06/21 07:29:50;;;;;;;8.10;5.10;;;15.40;99.90;;;;;;5015001;28;20183;-76
2022/06/21 07:32:21;;;;;;;4.80;4.30;;;15.60;99.90;;;;;;5030501;28;20289;-76
2022/06/21 07:34:56;;;;;;;4.80;4.30;;;15.80;99.90;;;;;;5014231;28;20218;-76
2022/06/21 07:37:58;;;;;;;5.10;4.10;;;15.80;99.90;;;;;;5030568;28;20201;-76
2022/06/21 07:40:34;;;;;;;6.50;3.83;;;16.00;99.90;;;;;;4992837;28;20278;-76
2022/06/21 07:43:09;;;;;;;4.03;3.50;;;16.20;99.90;;;;;;5013668;28;20261;-76
2022/06/21 07:45:38;;;;;;;3.17;2.83;;;16.30;99.90;;;;;;5014099;28;20182;-76
2022/06/21 07:48:07;;;;;;;3.80;2.80;;;16.30;99.90;;;;;;5015237;28;20222;-76
2022/06/21 07:51:04;;;;;;;3.73;3.00;;;16.40;99.90;;;;;;5013830;28;20175;-76
2022/06/21 07:53:39;;;;;;;3.27;2.90;;;16.60;99.90;;;;;;5030072;28;20695;-76
2022/06/21 07:56:14;;;;;;;5.33;3.10;;;16.70;99.90;;;;;;5013837;28;20198;-76
2022/06/21 07:59:00;;;;;;;4.43;3.17;;;16.90;99.90;;;;;;5029899;28;20293;-76
2022/06/21 08:07:32;;;;;;;3.87;2.70;;;17.30;99.90;;;;;;5015135;28;20246;-77
2022/06/21 08:10:04;;;;;;;4.03;2.70;;;17.30;99.90;;;;;;5013590;28;20290;-76
2022/06/21 08:12:29;;;;;;;3.80;2.80;;;17.40;99.90;;;;;;5029767;28;20207;-76
2022/06/21 08:14:55;;;;;;;3.90;2.70;;;17.30;99.90;;;;;;5013210;28;20190;-76
2022/06/21 08:18:03;;;;;;;3.23;2.43;;;17.40;99.90;;;;;;5013097;28;20249;-76
2022/06/21 08:20:36;;;;;;;4.30;2.70;;;17.40;99.90;;;;;;5013773;28;20195;-76
2022/06/21 08:23:01;;;;;;;3.73;2.90;;;17.60;99.90;;;;;;5029643;28;20171;-76
2022/06/21 08:25:34;;;;;;;4.40;2.60;;;17.70;99.90;;;;;;5029514;28;20289;-76
2022/06/21 08:28:31;;;;;;;3.87;2.80;;;17.80;99.90;;;;;;5013912;28;20195;-76
2022/06/21 08:31:02;;;;;;;3.23;2.70;;;18.00;99.90;;;;;;5012947;28;20574;-76
2022/06/21 08:33:44;;;;;;;3.40;2.40;;;18.00;99.90;;;;;;5029093;28;20297;-76
2022/06/21 08:36:25;;;;;;;3.23;2.60;;;18.10;99.90;;;;;;5012866;28;20187;-76
2022/06/21 08:39:07;;;;;;;5.03;2.60;;;18.00;99.90;;;;;;5012830;28;20199;-76
2022/06/21 08:41:55;;;;;;;3.63;3.03;;;18.30;99.90;;;;;;5013233;28;20182;-76
2022/06/21 08:44:39;;;;;;;2.40;2.10;;;18.50;99.90;;;;;;4994128;28;20223;-76
2022/06/21 08:47:32;;;;;;;3.30;2.43;;;18.90;99.90;;;;;;5013889;28;20206;-76
2022/06/21 08:50:36;;;;;;;2.47;2.20;;;18.90;99.90;;;;;;5029355;28;20321;-76
2022/06/21 08:53:10;;;;;;;4.13;2.60;;;19.10;99.90;;;;;;5013607;28;20190;-76
2022/06/21 08:56:02;;;;;;;2.83;2.50;;;19.10;99.90;;;;;;5012764;28;20170;-76
2022/06/21 09:02:08;;;;;;;4.13;2.20;;;18.90;99.90;;;;;;5013307;28;20276;-76
2022/06/21 09:04:53;;;;;;;3.60;2.20;;;19.20;99.90;;;;;;5012385;28;20179;-76
2022/06/21 09:07:32;;;;;;;2.50;2.07;;;19.40;99.90;;;;;;5012147;28;20677;-76
2022/06/21 09:10:23;;;;;;;2.50;2.07;;;19.30;99.90;;;;;;5012341;28;20178;-76
2022/06/21 09:13:18;;;;;;;2.83;2.07;;;19.60;99.90;;;;;;5012000;28;20233;-76
2022/06/21 09:15:56;;;;;;;2.97;2.20;;;19.70;99.90;;;;;;5003198;28;20187;-76
2022/06/21 09:18:45;;;;;;;2.30;2.00;;;19.80;99.90;;;;;;5012059;28;20194;-78
2022/06/21 09:21:31;;;;;;;3.40;2.00;;;19.70;99.90;;;;;;5013593;28;20166;-77
2022/06/21 09:24:13;;;;;;;4.13;2.23;;;19.70;99.90;;;;;;5011854;28;20227;-77
2022/06/21 09:26:49;;;;;;;2.77;2.33;;;19.70;99.90;;;;;;5012221;28;20210;-76
2022/06/21 09:29:30;;;;;;;2.43;2.10;;;19.90;99.90;;;;;;5011916;28;20735;-76
2022/06/21 09:32:05;;;;;;;2.43;2.13;;;20.00;99.90;;;;;;5011680;28;20206;-76
2022/06/21 09:34:54;;;;;;;2.30;2.10;;;20.40;99.90;;;;;;5011724;28;20170;-76
2022/06/21 09:37:43;;;;;;;2.40;1.90;;;20.60;99.90;;;;;;5011201;28;20281;-76
2022/06/21 09:40:21;;;;;;;2.40;2.00;;;20.90;99.90;;;;;;5011551;28;20580;-78
2022/06/21 09:43:09;;;;;;;2.97;1.98;;;21.00;99.90;;;;;;5011700;28;20175;-76
2022/06/21 09:45:46;;;;;;;2.55;1.70;;;21.30;99.90;;;;;;5011721;28;20179;-76
2022/06/21 09:48:38;;;;;;;2.60;1.73;;;21.70;99.90;;;;;;5012807;28;20229;-76
2022/06/21 09:51:11;;;;;;;3.17;2.00;;;22.10;99.90;;;;;;5011654;28;20175;-76
2022/06/21 09:54:04;;;;;;;3.72;1.80;;;22.20;99.90;;;;;;5011283;28;20206;-76
2022/06/21 09:56:42;;;;;;;2.08;1.80;;;22.20;99.90;;;;;;5012780;28;20155;-77
2022/06/21 10:02:41;;;;;;;2.65;1.92;;;22.30;99.90;;;;;;5012908;28;20637;-77
2022/06/21 10:05:19;;;;;;;4.65;1.98;;;22.40;99.00;;;;;;5012833;28;20614;-76
2022/06/21 10:08:15;;;;;;;1.58;1.48;;;22.40;99.90;;;;;;5012669;28;20297;-76
2022/06/21 10:11:17;;;;;;;2.33;1.63;;;22.60;99.20;;;;;;5012819;28;20663;-76
2022/06/21 10:14:01;;;;;;;4.35;1.90;;;22.60;98.50;;;;;;5011426;28;20621;-75
2022/06/21 10:17:04;;;;;;;2.08;1.52;;;22.70;97.30;;;;;;5012792;28;20156;-75
2022/06/21 10:20:09;;;;;;;1.92;1.55;;;22.90;99.20;;;;;;5011740;28;20167;-75
2022/06/21 10:23:02;;;;;;;2.05;1.50;;;23.20;97.00;;;;;;5011190;28;20206;-76
2022/06/21 10:25:39;;;;;;;2.78;1.70;;;23.30;94.50;;;;;;5011713;28;20258;-75
2022/06/21 10:28:23;;;;;;;1.95;1.70;;;22.90;89.90;;;;;;5011332;28;20199;-75
2022/06/21 10:31:30;;;;;;;4.20;2.05;;;23.10;93.90;;;;;;5012571;28;20653;-75
2022/06/21 10:34:36;;;;;;;2.58;1.42;;;23.80;99.20;;;;;;5010457;28;20692;-76
2022/06/21 10:37:38;;;;;;;1.50;1.27;;;24.10;91.10;;;;;;5011496;28;20241;-76
2022/06/21 10:40:36;;;;;;;2.53;1.83;;;24.10;88.30;;;;;;5012413;28;20171;-76
2022/06/21 10:43:08;;;;;;;1.83;1.35;;;24.20;91.10;;;;;;5009030;28;20278;-76
2022/06/21 10:46:00;;;;;;;2.00;1.30;;;24.20;83.30;;;;;;5011189;28;20640;-76
2022/06/21 10:48:57;;;;;;;1.50;1.20;;;24.50;88.30;;;;;;5012337;28;20191;-76
2022/06/21 10:51:29;;;;;;;2.40;1.30;;;24.40;74.90;;;;;;4999902;28;20183;-74
2022/06/21 10:54:13;;;;;;;1.92;1.40;;;24.00;73.60;;;;;;5016221;28;20631;-74
2022/06/21 10:57:13;;;;;;;2.58;1.50;;;23.90;84.70;;;;;;5014616;28;20190;-74
2022/06/21 11:02:34;;;;;;;3.33;1.40;;;24.50;81.20;;;;;;5015610;28;20194;-74
2022/06/21 11:05:25;;;;;;;3.47;1.45;;;25.10;83.50;;;;;;5014597;28;20533;-74
2022/06/21 11:08:20;;;;;;;3.85;1.58;;;25.50;73.10;;;;;;5015533;28;20581;-74
2022/06/21 11:11:06;;;;;;;1.45;1.35;;;24.80;72.90;;;;;;5014484;28;20638;-74
2022/06/21 11:14:03;;;;;;;2.05;1.30;;;25.20;77.70;;;;;;5014301;28;20199;-74
2022/06/21 11:16:34;;;;;;;2.72;1.27;;;25.50;77.60;;;;;;5009150;28;20835;-74
2022/06/21 11:19:19;;;;;;;2.15;1.70;;;25.20;73.30;;;;;;5014674;28;20167;-74
2022/06/21 11:21:56;;;;;;;2.30;1.40;;;24.80;75.20;;;;;;5014426;28;20175;-74
2022/06/21 11:24:59;;;;;;;3.38;1.30;;;24.80;79.20;;;;;;5014181;28;20167;-74
2022/06/21 11:27:42;;;;;;;4.03;1.60;;;25.30;80.70;;;;;;5015309;28;20218;-74
2022/06/21 11:30:17;;;;;;;1.55;1.40;;;25.30;71.50;;;;;;5014701;28;20178;-74
2022/06/21 11:33:07;;;;;;;2.35;1.50;;;25.50;76.70;;;;;;5015038;28;20848;-74
2022/06/21 11:35:41;;;;;;;1.67;1.27;;;25.30;71.30;;;;;;5014359;28;20164;-74
2022/06/21 11:38:33;;;;;;;1.52;1.33;;;25.60;74.00;;;;;;5015195;28;20559;-74
2022/06/21 11:41:09;;;;;;;2.25;1.35;;;25.80;69.00;;;;;;5013901;28;20594;-74
2022/06/21 11:43:59;;;;;;;1.42;1.30;;;25.80;68.50;;;;;;5013748;28;20164;-74
2022/06/21 11:46:33;;;;;;;2.28;1.50;;;25.90;67.30;;;;;;5013745;28;20174;-74
2022/06/21 11:49:36;;;;;;;2.35;1.42;;;25.80;65.80;;;;;;5013808;28;20178;-74
2022/06/21 11:52:21;;;;;;;1.50;1.40;;;25.80;65.90;;;;;;5014636;28;20194;-74
2022/06/21 11:55:17;;;;;;;3.75;1.55;;;25.40;67.50;;;;;;5013896;28;20163;-74
2022/06/21 12:02:00;;;;;;;5.97;1.50;;;25.50;66.20;;;;;;5015085;28;20221;-74
2022/06/21 12:04:41;;;;;;;2.22;1.58;;;25.20;65.50;;;;;;5013565;28;20175;-74
2022/06/21 12:07:27;;;;;;;2.78;1.60;;;24.90;67.80;;;;;;5013196;28;20253;-74
2022/06/21 12:09:57;;;;;;;3.10;1.50;;;24.80;66.20;;;;;;5013346;28;20179;-74
2022/06/21 12:12:41;;;;;;;2.17;1.50;;;24.90;67.60;;;;;;5012895;28;20199;-74
2022/06/21 12:15:30;;;;;;;3.50;1.70;;;24.90;67.80;;;;;;5012869;28;20167;-74
2022/06/21 12:18:15;;;;;;;2.00;1.60;;;25.40;67.10;;;;;;5014052;28;20291;-74
2022/06/21 12:20:42;;;;;;;2.17;1.50;;;25.80;68.20;;;;;;5013168;28;20174;-76
2022/06/21 12:23:14;;;;;;;2.85;1.58;;;26.00;65.60;;;;;;5013074;28;20542;-77
2022/06/21 12:25:40;;;;;;;1.98;1.58;;;25.80;67.30;;;;;;5013376;28;20187;-76
2022/06/21 12:28:14;;;;;;;1.90;1.67;;;25.90;68.00;;;;;;4980856;28;20195;-76
2022/06/21 12:30:40;;;;;;;2.75;1.50;;;26.20;66.20;;;;;;4996542;28;20555;-76
2022/06/21 12:33:09;;;;;;;1.73;1.40;;;26.30;67.70;;;;;;4996564;28;20207;-76
2022/06/21 12:35:45;;;;;;;2.38;1.80;;;26.60;64.50;;;;;;5012820;28;20642;-76
2022/06/21 12:38:17;;;;;;;2.17;1.60;;;27.00;69.40;;;;;;5013923;28;20195;-76
2022/06/21 12:41:02;;;;;;;2.75;1.50;;;27.30;64.10;;;;;;5012877;28;20175;-76
2022/06/21 12:43:46;;;;;;;2.33;1.63;;;27.40;63.90;;;;;;5012589;28;20167;-76
2022/06/21 12:46:19;;;;;;;2.90;1.73;;;26.80;65.00;;;;;;5013895;28;20559;-76
2022/06/21 12:49:02;;;;;;;2.13;1.70;;;26.50;63.80;;;;;;5012470;28;20191;-76
2022/06/21 12:52:00;;;;;;;2.75;1.50;;;26.80;66.40;;;;;;5012798;28;20171;-76
2022/06/21 12:54:31;;;;;;;1.90;1.48;;;27.00;64.10;;;;;;4977192;28;20271;-77
2022/06/21 12:57:15;;;;;;;2.15;1.50;;;26.70;61.90;;;;;;5013664;28;20278;-76
2022/06/21 12:59:46;;;;;;;3.05;1.90;;;26.90;64.30;;;;;;5012795;28;20177;-76
2022/06/21 13:02:38;;;;;;;1.70;1.60;;;26.90;63.30;;;;;;5013426;28;20166;-76
2022/06/21 13:05:19;;;;;;;2.92;1.70;;;27.40;63.60;;;;;;5002510;28;20249;-76
2022/06/21 13:08:15;;;;;;;2.60;1.65;;;27.60;62.10;;;;;;5013524;28;20276;-76
2022/06/21 13:11:08;;;;;;;2.97;1.58;;;27.40;59.40;;;;;;5012223;28;20175;-76
2022/06/21 13:13:46;;;;;;;1.50;1.40;;;26.90;59.60;;;;;;5011787;28;20206;-76
2022/06/21 13:16:33;;;;;;;1.67;1.50;;;26.80;64.70;;;;;;5012167;28;20171;-76
2022/06/21 13:19:36;;;;;;;1.52;1.42;;;27.00;65.00;;;;;;5012459;28;20217;-76
2022/06/21 13:22:37;;;;;;;2.65;2.00;;;27.20;62.50;;;;;;5010357;28;20212;-76
2022/06/21 13:25:09;;;;;;;1.50;1.40;;;26.90;57.60;;;;;;5013273;28;20181;-76
2022/06/21 13:27:55;;;;;;;1.58;1.40;;;26.30;58.00;;;;;;5011848;28;20677;-76
2022/06/21 13:30:38;;;;;;;2.40;1.30;;;26.40;58.90;;;;;;5013160;28;20240;-76
2022/06/21 13:33:04;;;;;;;3.42;1.65;;;26.50;59.90;;;;;;5011975;28;20203;-76
2022/06/21 13:35:42;;;;;;;2.92;1.67;;;26.40;59.30;;;;;;5011971;28;20181;-76
2022/06/21 13:38:37;;;;;;;2.60;1.60;;;26.40;59.10;;;;;;5011766;28;20248;-76
2022/06/21 13:42:37;;;;;;;1.67;1.58;;;25.90;59.60;;;;;;5010660;28;20187;-77
2022/06/21 13:44:11;;;;;;;3.58;1.55;;;25.70;60.70;;;;;;5012598;28;20645;-76
2022/06/21 13:46:47;;;;;;;1.52;1.33;;;26.10;60.80;;;;;;5011711;28;20225;-76
2022/06/21 13:49:31;;;;;;;2.38;1.50;;;26.20;59.60;;;;;;4995392;28;20166;-76
2022/06/21 13:51:59;;;;;;;2.45;1.52;;;26.40;58.20;;;;;;5011786;28;20569;-77
2022/06/21 13:54:36;;;;;;;1.45;1.30;;;26.70;58.90;;;;;;5013014;28;20250;-77
2022/06/21 13:57:36;;;;;;;1.92;1.40;;;27.10;58.50;;;;;;5011943;28;20229;-76
2022/06/21 14:00:04;;;;;;;1.55;1.45;;;26.90;56.60;;;;;;5011899;28;20618;-76
2022/06/21 14:03:16;;;;;;;2.65;1.40;;;27.20;61.50;;;;;;5011919;28;20178;-76
2022/06/21 14:05:53;;;;;;;2.75;1.50;;;27.20;58.30;;;;;;5002628;28;20680;-76
2022/06/21 14:08:28;;;;;;;2.53;1.40;;;27.20;59.20;;;;;;5049734;22;20225;-75
2022/06/21 14:11:09;;;;;;;1.67;1.20;;;27.40;52.70;;;;;;5031141;28;20169;-75
2022/06/21 14:13:46;;;;;;;1.80;1.40;;;27.60;55.60;;;;;;5032250;28;20178;-75